• Join FlightAware (Why Join?)
  • Login
  • US Flag 
02:11AM EST


 

Airport Tracker/Info


-or-


 

Live Flight TrackerFlight Track Log ✈ SWA104 ✈ 16-Jun-2013 ✈ KLAX - KSFO

Flight Track Log - Related Links

Times and Time Zones

All times are in EDT time to prevent confusion due to time zone crossing. See the SWA104 flight status page for this flight to view local times or setup timezone preferences in your user account.

Time Position Orientation Groundspeed Altitude Reporting Facility
EDT Latitude Longitude Course Direction KTS MPH feet Rate Location/Type
08:01PM 33.9453 -118.4539 287° West 157 181 1,700  Level Los Angeles Center
08:02PM 33.9392 -118.5333 265° West 231 266 3,600 2,400 Climbing Los Angeles Center
08:03PM 33.9289 -118.6208 262° West 261 300 6,700 3,480 Climbing Los Angeles Center
08:04PM 33.9172 -118.7194 262° West 275 316 10,900 3,420 Climbing Los Angeles Center
08:05PM 33.9089 -118.8119 264° West 295 339 13,900 3,120 Climbing Los Angeles Center
08:06PM 33.9372 -118.9047 290° West 314 361 17,400 3,120 Climbing Los Angeles Center
08:07PM 34.0854 -118.9416 287° West  Level FlightAware Approximate
08:08PM 33.9931 -118.9900 308° West 322 371 20,400  Level Los Angeles Center
08:09PM 34.0675 -119.1025 309° West 372 428 22,400 1,980 Climbing Los Angeles Center
08:10PM 34.1342 -119.2069 308° West 392 451 24,600 2,160 Climbing Los Angeles Center
08:11PM 34.2067 -119.3136 309° West 407 468 26,900 2,100 Climbing Los Angeles Center
08:12PM 34.2800 -119.4258 308° West 423 487 29,000 2,280 Climbing Los Angeles Center
08:13PM 34.3550 -119.5383 309° West 427 491 31,700 2,460 Climbing Los Angeles Center
08:14PM 34.4233 -119.6447 308° West 411 473 34,100 2,040 Climbing Los Angeles Center
08:15PM 34.5067 -119.7711 309° West 403 464 36,000 900 Climbing Los Angeles Center
08:16PM 34.5900 -119.8650 317° Northwest 409 471 36,000  Level Los Angeles Center
08:17PM 34.6778 -119.9547 320° Northwest 415 478 36,000  Level Los Angeles Center
08:18PM 34.7636 -120.0475 318° Northwest 414 476 36,000  Level Los Angeles Center
08:19PM 34.8456 -120.1378 318° Northwest 415 478 36,000  Level Los Angeles Center
08:20PM 34.9475 -120.2511 318° Northwest 418 481 36,000  Level Los Angeles Center
08:21PM 35.0333 -120.3450 318° Northwest 419 482 36,000  Level Los Angeles Center
08:22PM 35.1169 -120.4378 318° Northwest 413 475 36,000  Level Los Angeles Center
08:23PM 35.2011 -120.5319 318° Northwest 417 480 36,000  Level Los Angeles Center
08:24PM 35.2861 -120.6272 318° Northwest 418 481 36,000  Level Los Angeles Center
08:25PM 35.3883 -120.7419 318° Northwest 418 481 36,000  Level Los Angeles Center
08:26PM 35.4828 -120.8253 324° Northwest 420 483 36,000  Level Los Angeles Center
08:27PM 35.5772 -120.9086 324° Northwest 420 483 36,000  Level Los Angeles Center
08:28PM 35.6681 -120.9886 324° Northwest 418 481 36,000  Level Los Angeles Center
08:29PM 35.7225 -121.0403 322° Northwest 412 474 36,000  Level Oakland Center
08:30PM 35.8183 -121.1256 324° Northwest 418 481 36,000  Level Oakland Center
08:31PM 35.9128 -121.2114 324° Northwest 417 480 36,000 -120 Level Oakland Center
08:32PM 36.0106 -121.2964 325° Northwest 424 488 35,800 -1,380 Descending Oakland Center
08:33PM 36.1072 -121.3831 324° Northwest 428 493 33,200 -2,520 Descending Oakland Center
08:34PM 36.2050 -121.4706 324° Northwest 429 494 30,700 -2,400 Descending Oakland Center
08:35PM 36.2969 -121.5569 323° Northwest 414 476 28,400 -2,220 Descending Oakland Center
08:36PM 36.3878 -121.6394 324° Northwest 399 459 26,200 -2,160 Descending Oakland Center
08:37PM 36.4739 -121.7194 323° Northwest 383 441 24,000 -2,280 Descending Oakland Center
08:38PM 36.5500 -121.7833 326° Northwest 376 433 22,100 -2,340 Descending Northern Cal TRACON
08:39PM 36.6333 -121.8667 321° Northwest 371 427 19,900 -2,100 Descending Northern Cal TRACON
08:40PM 36.7333 -121.9500 326° Northwest 356 410 17,800 -1,740 Descending Northern Cal TRACON
08:41PM 36.8167 -121.9833 342° North 349 402 16,300 -1,380 Descending Northern Cal TRACON
08:42PM 36.9000 -122.0000 351° North 321 369 15,100 -1,500 Descending Northern Cal TRACON
08:43PM 37.0000 -122.0333 345° North 309 356 13,200 -1,680 Descending Northern Cal TRACON
08:44PM 37.0833 -122.0500 351° North 297 342 11,600 -1,500 Descending Northern Cal TRACON
08:45PM 37.1500 -122.0667 349° North 292 336 10,400 -1,320 Descending Northern Cal TRACON
08:45PM 37.1644 -122.0736 339° North 293 337 10,100 -1,260 Descending Oakland Center
08:46PM 37.2419 -122.0956 347° North 286 329 8,800 -1,440 Descending Oakland Center
08:47PM 37.3344 -122.1186 349° North 281 323 7,200 -1,200 Descending Oakland Center
08:48PM 37.3833 -122.1333 347° North 244 281 6,700 -1,200 Descending Northern Cal TRACON
08:49PM 37.4500 -122.1500 349° North 223 257 5,100 -1,260 Descending Northern Cal TRACON
08:50PM 37.5000 -122.1667 345° North 216 249 4,200 -1,080 Descending Northern Cal TRACON
08:51PM 37.5500 -122.2167 322° Northwest 188 216 3,000 -1,200 Descending Northern Cal TRACON
08:52PM 37.5667 -122.2667 293° West 168 193 1,800 -1,080 Descending Northern Cal TRACON
08:53PM 37.5833 -122.3000 302° West 128 147 1,000 -780 Descending Northern Cal TRACON
08:54PM 37.6000 -122.3333 302° West 124 143 400 -600 Descending Northern Cal TRACON
08:56PM 37.6167 -122.3667 322° Northwest  Level FlightAware Approximate
09:03PM 37.6191 -122.3752 322° Northwest  Level Estimated